sensor_id;sensor_type;location;lat;lon;timestamp;P1;durP1;ratioP1;P2;durP2;ratioP2
12535;SDS011;6334;48.696;2.114;2023-04-25T00:00:49;4.63;;;3.70;;
12535;SDS011;6334;48.696;2.114;2023-04-25T00:03:19;5.20;;;3.60;;
12535;SDS011;6334;48.696;2.114;2023-04-25T00:05:50;3.93;;;3.50;;
12535;SDS011;6334;48.696;2.114;2023-04-25T00:08:20;6.80;;;3.63;;
12535;SDS011;6334;48.696;2.114;2023-04-25T00:10:51;4.20;;;3.80;;
12535;SDS011;6334;48.696;2.114;2023-04-25T00:13:21;4.80;;;3.60;;
12535;SDS011;6334;48.696;2.114;2023-04-25T00:15:52;6.13;;;3.90;;
12535;SDS011;6334;48.696;2.114;2023-04-25T00:18:22;5.63;;;3.53;;
12535;SDS011;6334;48.696;2.114;2023-04-25T00:20:52;5.60;;;3.97;;
12535;SDS011;6334;48.696;2.114;2023-04-25T00:23:23;5.67;;;3.80;;
12535;SDS011;6334;48.696;2.114;2023-04-25T00:25:53;5.83;;;4.10;;
12535;SDS011;6334;48.696;2.114;2023-04-25T00:28:24;5.40;;;3.83;;
12535;SDS011;6334;48.696;2.114;2023-04-25T00:30:54;7.30;;;4.13;;
12535;SDS011;6334;48.696;2.114;2023-04-25T00:33:25;4.53;;;4.10;;
12535;SDS011;6334;48.696;2.114;2023-04-25T00:35:55;6.07;;;4.30;;
12535;SDS011;6334;48.696;2.114;2023-04-25T00:38:26;7.07;;;4.37;;
12535;SDS011;6334;48.696;2.114;2023-04-25T00:40:56;6.60;;;4.07;;
12535;SDS011;6334;48.696;2.114;2023-04-25T00:43:28;5.47;;;3.93;;
12535;SDS011;6334;48.696;2.114;2023-04-25T00:45:57;4.33;;;3.73;;
12535;SDS011;6334;48.696;2.114;2023-04-25T00:48:28;3.80;;;3.40;;
12535;SDS011;6334;48.696;2.114;2023-04-25T00:50:58;6.60;;;4.20;;
12535;SDS011;6334;48.696;2.114;2023-04-25T00:53:28;5.33;;;3.90;;
12535;SDS011;6334;48.696;2.114;2023-04-25T00:55:59;6.13;;;3.90;;
12535;SDS011;6334;48.696;2.114;2023-04-25T00:58:29;4.97;;;3.57;;
12535;SDS011;6334;48.696;2.114;2023-04-25T01:01:00;5.43;;;3.87;;
12535;SDS011;6334;48.696;2.114;2023-04-25T01:03:31;5.93;;;3.90;;
12535;SDS011;6334;48.696;2.114;2023-04-25T01:06:02;6.27;;;4.00;;
12535;SDS011;6334;48.696;2.114;2023-04-25T01:08:32;7.37;;;4.07;;
12535;SDS011;6334;48.696;2.114;2023-04-25T01:11:03;6.80;;;4.10;;
12535;SDS011;6334;48.696;2.114;2023-04-25T01:13:33;6.73;;;4.00;;
12535;SDS011;6334;48.696;2.114;2023-04-25T01:16:04;6.43;;;4.30;;
12535;SDS011;6334;48.696;2.114;2023-04-25T01:18:34;6.67;;;4.03;;
12535;SDS011;6334;48.696;2.114;2023-04-25T01:21:11;4.70;;;4.00;;
12535;SDS011;6334;48.696;2.114;2023-04-25T01:23:38;8.23;;;4.40;;
12535;SDS011;6334;48.696;2.114;2023-04-25T01:26:09;7.57;;;4.10;;
12535;SDS011;6334;48.696;2.114;2023-04-25T01:28:39;5.87;;;4.10;;
12535;SDS011;6334;48.696;2.114;2023-04-25T01:31:09;8.67;;;4.07;;
12535;SDS011;6334;48.696;2.114;2023-04-25T01:33:41;6.33;;;3.97;;
12535;SDS011;6334;48.696;2.114;2023-04-25T01:36:11;4.50;;;3.93;;
12535;SDS011;6334;48.696;2.114;2023-04-25T01:38:42;7.37;;;4.03;;
12535;SDS011;6334;48.696;2.114;2023-04-25T01:41:13;8.43;;;4.43;;
12535;SDS011;6334;48.696;2.114;2023-04-25T01:43:43;9.50;;;4.50;;
12535;SDS011;6334;48.696;2.114;2023-04-25T01:46:13;7.80;;;4.07;;
12535;SDS011;6334;48.696;2.114;2023-04-25T01:48:44;4.97;;;3.70;;
12535;SDS011;6334;48.696;2.114;2023-04-25T01:51:14;4.70;;;4.10;;
12535;SDS011;6334;48.696;2.114;2023-04-25T01:53:44;7.87;;;4.07;;
12535;SDS011;6334;48.696;2.114;2023-04-25T01:56:15;6.00;;;4.10;;
12535;SDS011;6334;48.696;2.114;2023-04-25T01:58:45;6.87;;;3.80;;
12535;SDS011;6334;48.696;2.114;2023-04-25T02:01:17;6.33;;;4.17;;
12535;SDS011;6334;48.696;2.114;2023-04-25T02:03:47;5.97;;;3.97;;
12535;SDS011;6334;48.696;2.114;2023-04-25T02:06:18;9.33;;;3.97;;
12535;SDS011;6334;48.696;2.114;2023-04-25T02:08:50;6.47;;;3.90;;
12535;SDS011;6334;48.696;2.114;2023-04-25T02:11:20;6.20;;;3.50;;
12535;SDS011;6334;48.696;2.114;2023-04-25T02:13:51;5.27;;;3.73;;
12535;SDS011;6334;48.696;2.114;2023-04-25T02:16:21;6.40;;;3.60;;
12535;SDS011;6334;48.696;2.114;2023-04-25T02:18:51;9.73;;;4.03;;
12535;SDS011;6334;48.696;2.114;2023-04-25T02:21:22;8.03;;;3.97;;
12535;SDS011;6334;48.696;2.114;2023-04-25T02:23:52;9.53;;;4.40;;
12535;SDS011;6334;48.696;2.114;2023-04-25T02:26:23;9.83;;;3.87;;
12535;SDS011;6334;48.696;2.114;2023-04-25T02:28:53;5.87;;;3.90;;
12535;SDS011;6334;48.696;2.114;2023-04-25T02:31:25;6.30;;;3.80;;
12535;SDS011;6334;48.696;2.114;2023-04-25T02:33:55;6.73;;;3.80;;
12535;SDS011;6334;48.696;2.114;2023-04-25T02:36:26;6.87;;;4.07;;
12535;SDS011;6334;48.696;2.114;2023-04-25T02:38:56;10.23;;;4.00;;
12535;SDS011;6334;48.696;2.114;2023-04-25T02:41:27;6.00;;;3.70;;
12535;SDS011;6334;48.696;2.114;2023-04-25T02:43:57;6.43;;;3.70;;
12535;SDS011;6334;48.696;2.114;2023-04-25T02:46:28;6.73;;;4.00;;
12535;SDS011;6334;48.696;2.114;2023-04-25T02:48:58;6.70;;;4.03;;
12535;SDS011;6334;48.696;2.114;2023-04-25T02:51:29;7.67;;;3.97;;
12535;SDS011;6334;48.696;2.114;2023-04-25T02:53:59;7.00;;;3.80;;
12535;SDS011;6334;48.696;2.114;2023-04-25T02:56:29;9.43;;;4.20;;
12535;SDS011;6334;48.696;2.114;2023-04-25T02:59:00;7.07;;;3.87;;
12535;SDS011;6334;48.696;2.114;2023-04-25T03:01:30;10.73;;;4.60;;
12535;SDS011;6334;48.696;2.114;2023-04-25T03:04:01;7.30;;;4.10;;
12535;SDS011;6334;48.696;2.114;2023-04-25T03:06:31;9.23;;;4.00;;
12535;SDS011;6334;48.696;2.114;2023-04-25T03:09:02;11.80;;;4.47;;
12535;SDS011;6334;48.696;2.114;2023-04-25T03:11:32;7.27;;;4.40;;
12535;SDS011;6334;48.696;2.114;2023-04-25T03:14:03;6.70;;;3.83;;
12535;SDS011;6334;48.696;2.114;2023-04-25T03:16:33;8.87;;;4.00;;
12535;SDS011;6334;48.696;2.114;2023-04-25T03:19:04;5.70;;;3.80;;
12535;SDS011;6334;48.696;2.114;2023-04-25T03:21:34;7.30;;;4.10;;
12535;SDS011;6334;48.696;2.114;2023-04-25T03:24:04;5.70;;;3.77;;
12535;SDS011;6334;48.696;2.114;2023-04-25T03:26:35;7.37;;;3.80;;
12535;SDS011;6334;48.696;2.114;2023-04-25T03:29:05;9.50;;;4.83;;
12535;SDS011;6334;48.696;2.114;2023-04-25T03:31:36;10.07;;;4.27;;
12535;SDS011;6334;48.696;2.114;2023-04-25T03:34:06;9.53;;;4.00;;
12535;SDS011;6334;48.696;2.114;2023-04-25T03:36:37;8.53;;;4.07;;
12535;SDS011;6334;48.696;2.114;2023-04-25T03:39:07;8.90;;;4.50;;
12535;SDS011;6334;48.696;2.114;2023-04-25T03:41:38;7.47;;;4.13;;
12535;SDS011;6334;48.696;2.114;2023-04-25T03:44:08;11.50;;;4.27;;
12535;SDS011;6334;48.696;2.114;2023-04-25T03:46:38;8.47;;;4.10;;
12535;SDS011;6334;48.696;2.114;2023-04-25T03:49:09;7.53;;;4.23;;
12535;SDS011;6334;48.696;2.114;2023-04-25T03:51:39;9.07;;;4.20;;
12535;SDS011;6334;48.696;2.114;2023-04-25T03:54:10;11.83;;;4.60;;
12535;SDS011;6334;48.696;2.114;2023-04-25T03:56:40;6.23;;;4.07;;
12535;SDS011;6334;48.696;2.114;2023-04-25T03:59:11;6.53;;;3.90;;
12535;SDS011;6334;48.696;2.114;2023-04-25T04:01:41;9.40;;;4.10;;
12535;SDS011;6334;48.696;2.114;2023-04-25T04:04:12;6.23;;;4.07;;
12535;SDS011;6334;48.696;2.114;2023-04-25T04:06:43;5.83;;;4.23;;
12535;SDS011;6334;48.696;2.114;2023-04-25T04:09:14;8.00;;;4.10;;
12535;SDS011;6334;48.696;2.114;2023-04-25T04:11:44;6.90;;;4.10;;
12535;SDS011;6334;48.696;2.114;2023-04-25T04:14:15;7.87;;;4.10;;
12535;SDS011;6334;48.696;2.114;2023-04-25T04:16:45;10.43;;;4.10;;
12535;SDS011;6334;48.696;2.114;2023-04-25T04:19:16;9.63;;;4.13;;
12535;SDS011;6334;48.696;2.114;2023-04-25T04:21:46;7.87;;;4.07;;
12535;SDS011;6334;48.696;2.114;2023-04-25T04:24:17;11.67;;;4.60;;
12535;SDS011;6334;48.696;2.114;2023-04-25T04:26:47;10.30;;;4.37;;
12535;SDS011;6334;48.696;2.114;2023-04-25T04:29:19;13.43;;;4.37;;
12535;SDS011;6334;48.696;2.114;2023-04-25T04:31:49;9.23;;;4.03;;
12535;SDS011;6334;48.696;2.114;2023-04-25T04:34:20;8.00;;;4.37;;
12535;SDS011;6334;48.696;2.114;2023-04-25T04:36:50;7.57;;;4.40;;
12535;SDS011;6334;48.696;2.114;2023-04-25T04:39:22;7.40;;;4.27;;
12535;SDS011;6334;48.696;2.114;2023-04-25T04:41:52;5.53;;;3.90;;
12535;SDS011;6334;48.696;2.114;2023-04-25T04:44:23;6.43;;;3.90;;
12535;SDS011;6334;48.696;2.114;2023-04-25T04:46:53;9.37;;;4.37;;
12535;SDS011;6334;48.696;2.114;2023-04-25T04:49:24;8.37;;;4.47;;
12535;SDS011;6334;48.696;2.114;2023-04-25T04:51:54;8.80;;;4.50;;
12535;SDS011;6334;48.696;2.114;2023-04-25T04:54:24;8.30;;;4.27;;
12535;SDS011;6334;48.696;2.114;2023-04-25T04:56:55;7.57;;;4.43;;
12535;SDS011;6334;48.696;2.114;2023-04-25T04:59:25;8.97;;;4.00;;
12535;SDS011;6334;48.696;2.114;2023-04-25T05:01:56;10.77;;;4.40;;
12535;SDS011;6334;48.696;2.114;2023-04-25T05:04:28;8.67;;;4.33;;
12535;SDS011;6334;48.696;2.114;2023-04-25T05:06:58;6.60;;;4.03;;
12535;SDS011;6334;48.696;2.114;2023-04-25T05:09:29;7.60;;;4.17;;
12535;SDS011;6334;48.696;2.114;2023-04-25T05:11:59;8.43;;;4.50;;
12535;SDS011;6334;48.696;2.114;2023-04-25T05:14:29;9.60;;;4.60;;
12535;SDS011;6334;48.696;2.114;2023-04-25T05:17:00;8.50;;;4.13;;
12535;SDS011;6334;48.696;2.114;2023-04-25T05:19:31;11.63;;;4.80;;
12535;SDS011;6334;48.696;2.114;2023-04-25T05:22:01;6.10;;;3.90;;
12535;SDS011;6334;48.696;2.114;2023-04-25T05:24:31;9.23;;;4.50;;
12535;SDS011;6334;48.696;2.114;2023-04-25T05:27:02;10.40;;;4.80;;
12535;SDS011;6334;48.696;2.114;2023-04-25T05:29:32;9.77;;;4.30;;
12535;SDS011;6334;48.696;2.114;2023-04-25T05:32:03;10.87;;;4.60;;
12535;SDS011;6334;48.696;2.114;2023-04-25T05:34:33;8.03;;;4.20;;
12535;SDS011;6334;48.696;2.114;2023-04-25T05:37:04;7.23;;;4.47;;
12535;SDS011;6334;48.696;2.114;2023-04-25T05:39:34;8.57;;;4.43;;
12535;SDS011;6334;48.696;2.114;2023-04-25T05:42:04;7.00;;;4.03;;
12535;SDS011;6334;48.696;2.114;2023-04-25T05:44:35;6.50;;;4.37;;
12535;SDS011;6334;48.696;2.114;2023-04-25T05:47:05;6.27;;;4.23;;
12535;SDS011;6334;48.696;2.114;2023-04-25T05:49:36;10.17;;;4.93;;
12535;SDS011;6334;48.696;2.114;2023-04-25T05:52:06;11.57;;;4.77;;
12535;SDS011;6334;48.696;2.114;2023-04-25T05:54:37;9.67;;;4.70;;
12535;SDS011;6334;48.696;2.114;2023-04-25T05:57:07;9.87;;;4.83;;
12535;SDS011;6334;48.696;2.114;2023-04-25T05:59:38;8.90;;;4.80;;
12535;SDS011;6334;48.696;2.114;2023-04-25T06:02:08;10.40;;;4.80;;
12535;SDS011;6334;48.696;2.114;2023-04-25T06:04:38;9.37;;;5.00;;
12535;SDS011;6334;48.696;2.114;2023-04-25T06:07:11;10.33;;;4.57;;
12535;SDS011;6334;48.696;2.114;2023-04-25T06:09:42;9.80;;;4.87;;
12535;SDS011;6334;48.696;2.114;2023-04-25T06:12:12;11.33;;;4.87;;
12535;SDS011;6334;48.696;2.114;2023-04-25T06:14:44;9.47;;;5.27;;
12535;SDS011;6334;48.696;2.114;2023-04-25T06:17:14;8.90;;;4.67;;
12535;SDS011;6334;48.696;2.114;2023-04-25T06:19:45;9.97;;;4.70;;
12535;SDS011;6334;48.696;2.114;2023-04-25T06:22:15;7.67;;;4.57;;
12535;SDS011;6334;48.696;2.114;2023-04-25T06:24:46;12.00;;;5.23;;
12535;SDS011;6334;48.696;2.114;2023-04-25T06:27:16;6.93;;;4.90;;
12535;SDS011;6334;48.696;2.114;2023-04-25T06:29:48;11.47;;;5.20;;
12535;SDS011;6334;48.696;2.114;2023-04-25T06:32:18;9.60;;;5.60;;
12535;SDS011;6334;48.696;2.114;2023-04-25T06:34:49;8.87;;;5.03;;
12535;SDS011;6334;48.696;2.114;2023-04-25T06:37:19;8.60;;;5.07;;
12535;SDS011;6334;48.696;2.114;2023-04-25T06:39:50;9.87;;;5.47;;
12535;SDS011;6334;48.696;2.114;2023-04-25T06:42:20;7.20;;;5.23;;
12535;SDS011;6334;48.696;2.114;2023-04-25T06:44:51;5.80;;;4.57;;
12535;SDS011;6334;48.696;2.114;2023-04-25T06:47:21;11.23;;;5.63;;
12535;SDS011;6334;48.696;2.114;2023-04-25T06:49:51;8.77;;;5.03;;
12535;SDS011;6334;48.696;2.114;2023-04-25T06:52:20;9.27;;;4.97;;
12535;SDS011;6334;48.696;2.114;2023-04-25T06:54:51;9.03;;;4.87;;
12535;SDS011;6334;48.696;2.114;2023-04-25T06:57:20;10.20;;;5.43;;
12535;SDS011;6334;48.696;2.114;2023-04-25T06:59:51;9.33;;;5.37;;
12535;SDS011;6334;48.696;2.114;2023-04-25T07:02:22;9.13;;;5.00;;
12535;SDS011;6334;48.696;2.114;2023-04-25T07:04:52;6.87;;;4.77;;
12535;SDS011;6334;48.696;2.114;2023-04-25T07:07:22;8.45;;;4.93;;
12535;SDS011;6334;48.696;2.114;2023-04-25T07:09:52;9.68;;;4.90;;
12535;SDS011;6334;48.696;2.114;2023-04-25T07:12:21;9.73;;;4.97;;
12535;SDS011;6334;48.696;2.114;2023-04-25T07:14:51;7.37;;;4.47;;
12535;SDS011;6334;48.696;2.114;2023-04-25T07:17:21;6.17;;;4.07;;
12535;SDS011;6334;48.696;2.114;2023-04-25T07:19:51;6.83;;;4.47;;
12535;SDS011;6334;48.696;2.114;2023-04-25T07:22:22;6.97;;;3.73;;
12535;SDS011;6334;48.696;2.114;2023-04-25T07:24:52;5.00;;;3.70;;
12535;SDS011;6334;48.696;2.114;2023-04-25T07:27:23;6.27;;;4.03;;
12535;SDS011;6334;48.696;2.114;2023-04-25T07:29:53;4.07;;;3.50;;
12535;SDS011;6334;48.696;2.114;2023-04-25T07:32:24;5.77;;;3.53;;
12535;SDS011;6334;48.696;2.114;2023-04-25T07:34:54;6.57;;;3.50;;
12535;SDS011;6334;48.696;2.114;2023-04-25T07:37:24;4.23;;;3.57;;
12535;SDS011;6334;48.696;2.114;2023-04-25T07:39:55;5.33;;;3.83;;
12535;SDS011;6334;48.696;2.114;2023-04-25T07:42:24;5.07;;;4.30;;
12535;SDS011;6334;48.696;2.114;2023-04-25T07:44:55;6.23;;;4.27;;
12535;SDS011;6334;48.696;2.114;2023-04-25T07:47:24;8.30;;;4.90;;
12535;SDS011;6334;48.696;2.114;2023-04-25T07:49:54;6.73;;;4.70;;
12535;SDS011;6334;48.696;2.114;2023-04-25T07:52:23;7.07;;;5.03;;
12535;SDS011;6334;48.696;2.114;2023-04-25T07:54:53;6.60;;;4.93;;
12535;SDS011;6334;48.696;2.114;2023-04-25T07:57:23;8.60;;;5.07;;
12535;SDS011;6334;48.696;2.114;2023-04-25T07:59:52;8.93;;;5.30;;
12535;SDS011;6334;48.696;2.114;2023-04-25T08:02:22;9.30;;;5.63;;
12535;SDS011;6334;48.696;2.114;2023-04-25T08:04:52;6.40;;;4.93;;
12535;SDS011;6334;48.696;2.114;2023-04-25T08:07:23;8.70;;;5.70;;
12535;SDS011;6334;48.696;2.114;2023-04-25T08:09:53;7.80;;;5.63;;
12535;SDS011;6334;48.696;2.114;2023-04-25T08:12:22;8.10;;;4.83;;
12535;SDS011;6334;48.696;2.114;2023-04-25T08:14:52;7.83;;;5.03;;
12535;SDS011;6334;48.696;2.114;2023-04-25T08:17:22;8.13;;;5.60;;
12535;SDS011;6334;48.696;2.114;2023-04-25T08:19:52;8.57;;;5.80;;
12535;SDS011;6334;48.696;2.114;2023-04-25T08:22:22;10.20;;;6.27;;
12535;SDS011;6334;48.696;2.114;2023-04-25T08:24:52;12.77;;;6.93;;
12535;SDS011;6334;48.696;2.114;2023-04-25T08:27:22;12.17;;;7.27;;
12535;SDS011;6334;48.696;2.114;2023-04-25T08:29:52;12.27;;;7.13;;
12535;SDS011;6334;48.696;2.114;2023-04-25T08:32:22;11.93;;;7.47;;
12535;SDS011;6334;48.696;2.114;2023-04-25T08:34:52;12.40;;;7.33;;
12535;SDS011;6334;48.696;2.114;2023-04-25T08:37:23;15.82;;;10.50;;
12535;SDS011;6334;48.696;2.114;2023-04-25T08:39:52;11.76;;;7.40;;
12535;SDS011;6334;48.696;2.114;2023-04-25T08:42:22;12.90;;;7.63;;
12535;SDS011;6334;48.696;2.114;2023-04-25T08:44:53;11.70;;;7.37;;
12535;SDS011;6334;48.696;2.114;2023-04-25T08:47:22;13.40;;;7.07;;
12535;SDS011;6334;48.696;2.114;2023-04-25T08:49:52;13.03;;;7.50;;
12535;SDS011;6334;48.696;2.114;2023-04-25T08:52:24;18.97;;;7.30;;
12535;SDS011;6334;48.696;2.114;2023-04-25T08:54:51;13.87;;;7.60;;
12535;SDS011;6334;48.696;2.114;2023-04-25T08:57:21;12.87;;;6.97;;
12535;SDS011;6334;48.696;2.114;2023-04-25T08:59:51;13.10;;;6.90;;
12535;SDS011;6334;48.696;2.114;2023-04-25T09:02:20;14.27;;;7.03;;
12535;SDS011;6334;48.696;2.114;2023-04-25T09:04:50;14.97;;;7.10;;
12535;SDS011;6334;48.696;2.114;2023-04-25T09:07:20;12.93;;;7.27;;
12535;SDS011;6334;48.696;2.114;2023-04-25T09:09:51;13.37;;;7.30;;
12535;SDS011;6334;48.696;2.114;2023-04-25T09:12:21;17.13;;;6.90;;
12535;SDS011;6334;48.696;2.114;2023-04-25T09:15:10;22.10;;;7.50;;
12535;SDS011;6334;48.696;2.114;2023-04-25T09:17:41;13.44;;;7.22;;
12535;SDS011;6334;48.696;2.114;2023-04-25T09:20:12;11.27;;;6.77;;
12535;SDS011;6334;48.696;2.114;2023-04-25T09:22:40;10.43;;;6.57;;
12535;SDS011;6334;48.696;2.114;2023-04-25T09:25:11;12.17;;;6.67;;
12535;SDS011;6334;48.696;2.114;2023-04-25T09:27:50;9.80;;;5.90;;
12535;SDS011;6334;48.696;2.114;2023-04-25T09:30:28;10.17;;;5.80;;
12535;SDS011;6334;48.696;2.114;2023-04-25T09:32:49;10.24;;;5.74;;
12535;SDS011;6334;48.696;2.114;2023-04-25T09:35:25;8.13;;;5.27;;
12535;SDS011;6334;48.696;2.114;2023-04-25T09:37:55;12.00;;;6.20;;
12535;SDS011;6334;48.696;2.114;2023-04-25T09:40:24;10.23;;;5.78;;
12535;SDS011;6334;48.696;2.114;2023-04-25T09:42:54;11.57;;;5.93;;
12535;SDS011;6334;48.696;2.114;2023-04-25T09:45:25;11.17;;;5.83;;
12535;SDS011;6334;48.696;2.114;2023-04-25T09:48:02;10.18;;;5.93;;
12535;SDS011;6334;48.696;2.114;2023-04-25T09:50:28;11.00;;;6.07;;
12535;SDS011;6334;48.696;2.114;2023-04-25T09:53:02;9.97;;;6.20;;
12535;SDS011;6334;48.696;2.114;2023-04-25T09:55:31;12.30;;;6.00;;
12535;SDS011;6334;48.696;2.114;2023-04-25T09:58:05;9.20;;;5.67;;
12535;SDS011;6334;48.696;2.114;2023-04-25T10:00:34;8.97;;;5.73;;
12535;SDS011;6334;48.696;2.114;2023-04-25T10:03:04;20.50;;;6.13;;
12535;SDS011;6334;48.696;2.114;2023-04-25T10:05:34;13.77;;;5.93;;
12535;SDS011;6334;48.696;2.114;2023-04-25T10:08:04;12.25;;;6.28;;
12535;SDS011;6334;48.696;2.114;2023-04-25T10:10:36;12.53;;;5.80;;
12535;SDS011;6334;48.696;2.114;2023-04-25T10:13:05;10.40;;;6.50;;
12535;SDS011;6334;48.696;2.114;2023-04-25T10:15:35;15.17;;;5.80;;
12535;SDS011;6334;48.696;2.114;2023-04-25T10:18:05;13.47;;;5.87;;
12535;SDS011;6334;48.696;2.114;2023-04-25T10:20:34;10.93;;;5.50;;
12535;SDS011;6334;48.696;2.114;2023-04-25T10:23:06;13.90;;;6.30;;
12535;SDS011;6334;48.696;2.114;2023-04-25T10:25:36;10.57;;;5.30;;
12535;SDS011;6334;48.696;2.114;2023-04-25T10:28:06;9.41;;;4.87;;
12535;SDS011;6334;48.696;2.114;2023-04-25T10:30:36;29.93;;;6.83;;
12535;SDS011;6334;48.696;2.114;2023-04-25T10:33:16;12.77;;;5.87;;
12535;SDS011;6334;48.696;2.114;2023-04-25T10:35:36;11.23;;;5.10;;
12535;SDS011;6334;48.696;2.114;2023-04-25T10:38:09;11.03;;;5.60;;
12535;SDS011;6334;48.696;2.114;2023-04-25T10:40:39;16.47;;;5.43;;
12535;SDS011;6334;48.696;2.114;2023-04-25T10:46:00;12.63;;;5.20;;
12535;SDS011;6334;48.696;2.114;2023-04-25T10:48:30;11.63;;;5.80;;
12535;SDS011;6334;48.696;2.114;2023-04-25T10:51:16;9.17;;;5.43;;
12535;SDS011;6334;48.696;2.114;2023-04-25T10:56:30;9.03;;;5.40;;
12535;SDS011;6334;48.696;2.114;2023-04-25T10:59:05;9.47;;;4.93;;
12535;SDS011;6334;48.696;2.114;2023-04-25T11:01:36;10.13;;;4.60;;
12535;SDS011;6334;48.696;2.114;2023-04-25T11:04:05;9.07;;;5.57;;
12535;SDS011;6334;48.696;2.114;2023-04-25T11:09:08;8.47;;;4.43;;
12535;SDS011;6334;48.696;2.114;2023-04-25T11:11:33;9.63;;;5.07;;
12535;SDS011;6334;48.696;2.114;2023-04-25T11:14:03;7.83;;;4.90;;
12535;SDS011;6334;48.696;2.114;2023-04-25T11:16:33;7.97;;;4.83;;
12535;SDS011;6334;48.696;2.114;2023-04-25T11:19:02;9.13;;;4.83;;
12535;SDS011;6334;48.696;2.114;2023-04-25T11:21:32;7.53;;;4.57;;
12535;SDS011;6334;48.696;2.114;2023-04-25T11:24:02;8.27;;;4.73;;
12535;SDS011;6334;48.696;2.114;2023-04-25T11:26:31;9.13;;;4.53;;
12535;SDS011;6334;48.696;2.114;2023-04-25T11:29:01;6.28;;;4.20;;
12535;SDS011;6334;48.696;2.114;2023-04-25T11:31:31;7.03;;;4.13;;
12535;SDS011;6334;48.696;2.114;2023-04-25T11:34:02;8.27;;;4.37;;
12535;SDS011;6334;48.696;2.114;2023-04-25T11:36:32;9.63;;;4.40;;
12535;SDS011;6334;48.696;2.114;2023-04-25T11:39:01;9.03;;;5.70;;
12535;SDS011;6334;48.696;2.114;2023-04-25T11:41:32;28.92;;;9.50;;
12535;SDS011;6334;48.696;2.114;2023-04-25T11:44:02;18.20;;;6.70;;
12535;SDS011;6334;48.696;2.114;2023-04-25T11:46:35;9.97;;;4.97;;
12535;SDS011;6334;48.696;2.114;2023-04-25T11:49:04;8.10;;;4.27;;
12535;SDS011;6334;48.696;2.114;2023-04-25T11:51:38;17.97;;;5.57;;
12535;SDS011;6334;48.696;2.114;2023-04-25T11:54:10;7.80;;;4.30;;
12535;SDS011;6334;48.696;2.114;2023-04-25T11:56:43;10.70;;;4.53;;
12535;SDS011;6334;48.696;2.114;2023-04-25T11:59:12;7.23;;;3.93;;
12535;SDS011;6334;48.696;2.114;2023-04-25T12:01:47;47.00;;;6.57;;
12535;SDS011;6334;48.696;2.114;2023-04-25T12:04:12;12.50;;;4.43;;
12535;SDS011;6334;48.696;2.114;2023-04-25T12:06:41;4.63;;;3.77;;
12535;SDS011;6334;48.696;2.114;2023-04-25T12:09:10;7.43;;;4.15;;
12535;SDS011;6334;48.696;2.114;2023-04-25T12:11:46;8.35;;;4.10;;
12535;SDS011;6334;48.696;2.114;2023-04-25T12:14:28;10.73;;;4.55;;
12535;SDS011;6334;48.696;2.114;2023-04-25T12:16:57;8.67;;;3.80;;
12535;SDS011;6334;48.696;2.114;2023-04-25T12:19:31;7.63;;;3.77;;
12535;SDS011;6334;48.696;2.114;2023-04-25T12:21:56;7.17;;;3.70;;
12535;SDS011;6334;48.696;2.114;2023-04-25T12:24:27;12.57;;;4.97;;
12535;SDS011;6334;48.696;2.114;2023-04-25T12:27:00;6.40;;;3.80;;
12535;SDS011;6334;48.696;2.114;2023-04-25T12:29:30;5.90;;;3.63;;
12535;SDS011;6334;48.696;2.114;2023-04-25T12:31:59;5.53;;;3.77;;
12535;SDS011;6334;48.696;2.114;2023-04-25T12:34:31;7.27;;;3.47;;
12535;SDS011;6334;48.696;2.114;2023-04-25T12:37:01;4.73;;;3.40;;
12535;SDS011;6334;48.696;2.114;2023-04-25T12:39:30;7.33;;;3.60;;
12535;SDS011;6334;48.696;2.114;2023-04-25T12:42:01;7.27;;;3.50;;
12535;SDS011;6334;48.696;2.114;2023-04-25T12:44:30;8.83;;;3.73;;
12535;SDS011;6334;48.696;2.114;2023-04-25T12:47:01;10.37;;;4.90;;
12535;SDS011;6334;48.696;2.114;2023-04-25T12:49:31;4.67;;;3.77;;
12535;SDS011;6334;48.696;2.114;2023-04-25T12:52:01;7.10;;;4.20;;
12535;SDS011;6334;48.696;2.114;2023-04-25T12:54:30;9.10;;;3.70;;
12535;SDS011;6334;48.696;2.114;2023-04-25T12:57:00;9.73;;;5.30;;
12535;SDS011;6334;48.696;2.114;2023-04-25T12:59:29;6.80;;;4.20;;
12535;SDS011;6334;48.696;2.114;2023-04-25T13:01:59;7.97;;;4.50;;
12535;SDS011;6334;48.696;2.114;2023-04-25T13:04:30;7.67;;;4.07;;
12535;SDS011;6334;48.696;2.114;2023-04-25T13:06:59;5.90;;;3.77;;
12535;SDS011;6334;48.696;2.114;2023-04-25T13:09:29;9.10;;;4.26;;
12535;SDS011;6334;48.696;2.114;2023-04-25T13:11:59;7.07;;;3.80;;
12535;SDS011;6334;48.696;2.114;2023-04-25T13:14:29;6.30;;;3.72;;
12535;SDS011;6334;48.696;2.114;2023-04-25T13:17:00;5.53;;;3.40;;
12535;SDS011;6334;48.696;2.114;2023-04-25T13:19:31;4.93;;;3.30;;
12535;SDS011;6334;48.696;2.114;2023-04-25T13:22:01;7.30;;;4.00;;
12535;SDS011;6334;48.696;2.114;2023-04-25T13:24:32;7.57;;;3.70;;
12535;SDS011;6334;48.696;2.114;2023-04-25T13:27:02;6.68;;;4.47;;
12535;SDS011;6334;48.696;2.114;2023-04-25T13:29:32;8.13;;;4.47;;
12535;SDS011;6334;48.696;2.114;2023-04-25T13:32:02;8.60;;;4.13;;
12535;SDS011;6334;48.696;2.114;2023-04-25T13:34:32;4.37;;;3.67;;
12535;SDS011;6334;48.696;2.114;2023-04-25T13:37:02;7.57;;;3.60;;
12535;SDS011;6334;48.696;2.114;2023-04-25T13:39:31;9.30;;;3.30;;
12535;SDS011;6334;48.696;2.114;2023-04-25T13:42:01;5.40;;;3.30;;
12535;SDS011;6334;48.696;2.114;2023-04-25T13:44:30;20.83;;;6.33;;
12535;SDS011;6334;48.696;2.114;2023-04-25T13:47:00;18.73;;;5.23;;
12535;SDS011;6334;48.696;2.114;2023-04-25T13:49:30;10.10;;;4.37;;
12535;SDS011;6334;48.696;2.114;2023-04-25T13:52:00;8.30;;;4.23;;
12535;SDS011;6334;48.696;2.114;2023-04-25T13:54:30;11.53;;;3.80;;
12535;SDS011;6334;48.696;2.114;2023-04-25T13:56:59;7.57;;;3.63;;
12535;SDS011;6334;48.696;2.114;2023-04-25T13:59:30;5.57;;;3.50;;
12535;SDS011;6334;48.696;2.114;2023-04-25T14:01:59;5.90;;;3.53;;
12535;SDS011;6334;48.696;2.114;2023-04-25T14:04:30;5.77;;;3.20;;
12535;SDS011;6334;48.696;2.114;2023-04-25T14:07:00;5.50;;;3.23;;
12535;SDS011;6334;48.696;2.114;2023-04-25T14:09:30;6.07;;;3.57;;
12535;SDS011;6334;48.696;2.114;2023-04-25T14:12:00;7.80;;;3.90;;
12535;SDS011;6334;48.696;2.114;2023-04-25T14:14:29;4.97;;;3.40;;
12535;SDS011;6334;48.696;2.114;2023-04-25T14:16:59;6.93;;;3.13;;
12535;SDS011;6334;48.696;2.114;2023-04-25T14:19:28;6.33;;;3.50;;
12535;SDS011;6334;48.696;2.114;2023-04-25T14:21:58;4.73;;;3.13;;
12535;SDS011;6334;48.696;2.114;2023-04-25T14:24:27;4.53;;;3.23;;
12535;SDS011;6334;48.696;2.114;2023-04-25T14:26:58;3.87;;;3.40;;
12535;SDS011;6334;48.696;2.114;2023-04-25T14:29:28;6.60;;;3.80;;
12535;SDS011;6334;48.696;2.114;2023-04-25T14:31:59;8.20;;;3.53;;
12535;SDS011;6334;48.696;2.114;2023-04-25T14:34:29;7.90;;;3.47;;
12535;SDS011;6334;48.696;2.114;2023-04-25T14:36:58;9.50;;;3.87;;
12535;SDS011;6334;48.696;2.114;2023-04-25T14:39:28;8.53;;;4.23;;
12535;SDS011;6334;48.696;2.114;2023-04-25T14:41:57;10.00;;;4.03;;
12535;SDS011;6334;48.696;2.114;2023-04-25T14:44:28;5.97;;;3.47;;
12535;SDS011;6334;48.696;2.114;2023-04-25T14:46:57;9.30;;;3.77;;
12535;SDS011;6334;48.696;2.114;2023-04-25T14:49:27;11.63;;;4.43;;
12535;SDS011;6334;48.696;2.114;2023-04-25T14:51:57;9.83;;;4.67;;
12535;SDS011;6334;48.696;2.114;2023-04-25T14:54:26;7.13;;;3.97;;
12535;SDS011;6334;48.696;2.114;2023-04-25T14:56:56;6.10;;;3.43;;
12535;SDS011;6334;48.696;2.114;2023-04-25T14:59:25;8.33;;;3.80;;
12535;SDS011;6334;48.696;2.114;2023-04-25T15:01:55;8.03;;;4.13;;
12535;SDS011;6334;48.696;2.114;2023-04-25T15:04:24;3.70;;;3.00;;
12535;SDS011;6334;48.696;2.114;2023-04-25T15:06:54;8.27;;;4.20;;
12535;SDS011;6334;48.696;2.114;2023-04-25T15:09:24;8.20;;;4.07;;
12535;SDS011;6334;48.696;2.114;2023-04-25T15:11:53;6.77;;;3.70;;
12535;SDS011;6334;48.696;2.114;2023-04-25T15:14:23;6.47;;;4.00;;
12535;SDS011;6334;48.696;2.114;2023-04-25T15:16:52;8.50;;;4.53;;
12535;SDS011;6334;48.696;2.114;2023-04-25T15:19:23;6.40;;;3.83;;
12535;SDS011;6334;48.696;2.114;2023-04-25T15:21:52;7.87;;;3.50;;
12535;SDS011;6334;48.696;2.114;2023-04-25T15:24:22;7.37;;;3.60;;